Time;durP1;ratioP1;P1;durP2;ratioP2;P2;SDS_P1;SDS_P2;PMS_P1;PMS_P2;Temp;Humidity;BMP_temperature;BMP_pressure;BME280_temperature;BME280_humidity;BME280_pressure;Samples;Min_cycle;Max_cycle;Signal;HPM_P1;HPM_P2
2023/10/17 00:01:33;;;;;;;14.00;8.70;;;3.70;99.90;;;;;;5073697;28;20562;-57
2023/10/17 00:06:54;;;;;;;15.57;9.10;;;3.60;99.90;;;;;;5085660;28;20467;-58
2023/10/17 00:09:26;;;;;;;15.90;9.03;;;3.60;99.90;;;;;;5083573;28;20404;-58
2023/10/17 00:14:23;;;;;;;13.93;8.43;;;3.50;99.90;;;;;;5087082;28;20456;-58
2023/10/17 00:16:50;;;;;;;20.53;9.47;;;3.50;99.90;;;;;;5078331;28;20546;-56
2023/10/17 00:19:17;;;;;;;16.50;8.67;;;3.40;99.90;;;;;;5081261;28;20435;-57
2023/10/17 00:21:42;;;;;;;14.03;9.10;;;3.40;99.90;;;;;;5078391;28;20460;-57
2023/10/17 00:24:09;;;;;;;11.40;7.83;;;3.40;99.90;;;;;;5077039;28;20591;-58
2023/10/17 00:26:39;;;;;;;13.97;8.40;;;3.30;99.90;;;;;;5091978;27;20340;-58
2023/10/17 00:29:07;;;;;;;15.57;9.20;;;3.30;99.90;;;;;;5073541;28;20431;-58
2023/10/17 00:31:33;;;;;;;15.90;9.67;;;3.30;99.90;;;;;;5069931;28;20470;-56
2023/10/17 00:34:00;;;;;;;14.67;9.97;;;3.20;99.90;;;;;;5077941;28;20474;-58
2023/10/17 00:36:29;;;;;;;12.93;8.93;;;3.20;99.90;;;;;;5082345;28;20305;-58
2023/10/17 00:39:07;;;;;;;14.80;8.90;;;3.20;99.90;;;;;;5073424;28;20431;-57
2023/10/17 00:41:49;;;;;;;16.23;9.47;;;3.20;99.90;;;;;;5073527;28;20468;-57
2023/10/17 00:44:14;;;;;;;15.17;9.27;;;3.20;99.90;;;;;;5076246;28;20431;-56
2023/10/17 00:46:41;;;;;;;16.33;9.70;;;3.20;99.90;;;;;;5072950;28;20448;-58
2023/10/17 00:49:10;;;;;;;14.50;9.30;;;3.20;99.90;;;;;;5079413;28;20177;-57
2023/10/17 00:51:39;;;;;;;17.47;9.97;;;3.20;99.90;;;;;;5076355;28;20427;-57
2023/10/17 00:54:06;;;;;;;22.53;9.63;;;3.20;99.90;;;;;;5077691;28;20506;-56
2023/10/17 00:56:32;;;;;;;15.70;9.30;;;3.20;99.90;;;;;;5076925;28;20989;-57
2023/10/17 00:58:58;;;;;;;18.90;10.37;;;3.20;99.90;;;;;;5076580;28;20427;-57
2023/10/17 01:01:27;;;;;;;16.83;10.00;;;3.10;99.90;;;;;;5087443;27;21182;-58
2023/10/17 01:03:54;;;;;;;14.80;9.07;;;3.10;99.90;;;;;;5077095;28;20910;-58
2023/10/17 01:08:49;;;;;;;15.70;10.10;;;3.10;99.90;;;;;;5087687;28;20412;-58
2023/10/17 01:11:20;;;;;;;18.10;9.83;;;3.00;99.90;;;;;;5087830;28;20411;-56
2023/10/17 01:13:53;;;;;;;17.40;10.00;;;3.00;99.90;;;;;;5084155;28;20491;-59
2023/10/17 01:16:20;;;;;;;16.97;9.27;;;3.00;99.90;;;;;;5085632;28;20458;-55
2023/10/17 01:18:47;;;;;;;15.70;9.30;;;2.90;99.90;;;;;;5081864;28;20442;-57
2023/10/17 01:21:19;;;;;;;17.47;9.80;;;2.90;99.90;;;;;;5083338;28;20459;-58
2023/10/17 01:23:47;;;;;;;12.60;9.47;;;2.90;99.90;;;;;;5083624;28;20445;-59
2023/10/17 01:26:37;;;;;;;15.17;8.87;;;2.90;99.90;;;;;;5089943;28;20423;-57
2023/10/17 01:29:03;;;;;;;16.20;9.50;;;2.90;99.90;;;;;;5087421;28;20425;-57
2023/10/17 01:31:31;;;;;;;17.53;9.50;;;2.80;99.90;;;;;;5082489;28;20417;-58
2023/10/17 01:34:00;;;;;;;15.33;9.57;;;2.80;99.90;;;;;;5085132;28;20420;-56
2023/10/17 01:36:27;;;;;;;21.20;10.23;;;2.80;99.90;;;;;;5085848;28;20448;-58
2023/10/17 01:38:54;;;;;;;20.97;10.63;;;2.80;99.90;;;;;;5080081;28;20431;-52
2023/10/17 01:41:20;;;;;;;22.10;9.63;;;2.80;99.90;;;;;;5090788;28;20193;-58
2023/10/17 01:43:47;;;;;;;16.23;10.13;;;2.80;99.90;;;;;;5090301;28;20407;-57
2023/10/17 01:46:21;;;;;;;15.53;9.70;;;2.80;99.90;;;;;;5084325;28;20524;-56
2023/10/17 01:48:48;;;;;;;16.30;9.40;;;2.80;99.90;;;;;;5082191;28;20476;-56
2023/10/17 01:51:14;;;;;;;14.70;9.00;;;2.80;99.90;;;;;;5083912;28;20466;-57
2023/10/17 01:53:41;;;;;;;15.20;8.83;;;2.80;99.90;;;;;;5073719;28;20812;-58
2023/10/17 01:56:13;;;;;;;16.77;10.13;;;2.80;99.90;;;;;;5077646;28;20431;-58
2023/10/17 01:58:50;;;;;;;16.03;10.10;;;2.80;99.90;;;;;;5075938;28;20436;-57
2023/10/17 02:01:29;;;;;;;14.37;9.33;;;2.80;99.90;;;;;;5078789;28;20639;-56
2023/10/17 02:04:03;;;;;;;18.73;10.50;;;2.80;99.90;;;;;;5083211;28;20420;-58
2023/10/17 02:06:33;;;;;;;15.43;9.47;;;2.70;99.90;;;;;;5087138;28;20550;-57
2023/10/17 02:08:59;;;;;;;15.03;9.23;;;2.70;99.90;;;;;;5089554;28;20882;-58
2023/10/17 02:11:32;;;;;;;14.47;9.57;;;2.70;99.90;;;;;;5081866;28;20451;-56
2023/10/17 02:13:59;;;;;;;16.30;9.47;;;2.60;99.90;;;;;;5083056;28;20424;-58
2023/10/17 02:16:29;;;;;;;16.67;9.87;;;2.60;99.90;;;;;;5078831;28;21013;-58
2023/10/17 02:18:55;;;;;;;14.73;9.63;;;2.50;99.90;;;;;;5083201;28;20444;-57
2023/10/17 02:21:21;;;;;;;16.13;9.63;;;2.50;99.90;;;;;;5088818;28;21072;-57
2023/10/17 02:23:51;;;;;;;13.80;8.83;;;2.50;99.90;;;;;;5085269;28;20444;-56
2023/10/17 02:26:21;;;;;;;18.60;10.33;;;2.50;99.90;;;;;;5082636;28;20203;-55
2023/10/17 02:28:51;;;;;;;18.07;10.17;;;2.40;99.90;;;;;;5079925;28;21287;-58
2023/10/17 02:31:17;;;;;;;19.30;11.40;;;2.40;99.90;;;;;;5085184;28;20427;-56
2023/10/17 02:33:43;;;;;;;19.47;11.50;;;2.40;99.90;;;;;;5080537;28;20600;-59
2023/10/17 02:36:12;;;;;;;19.73;11.23;;;2.40;99.90;;;;;;5080565;28;20606;-58
2023/10/17 02:38:39;;;;;;;17.30;9.87;;;2.40;99.90;;;;;;5084827;28;20230;-58
2023/10/17 02:41:22;;;;;;;15.53;9.50;;;2.40;99.90;;;;;;5083795;28;20949;-57
2023/10/17 02:43:55;;;;;;;18.10;9.83;;;2.40;99.90;;;;;;5081065;28;20451;-58
2023/10/17 02:46:26;;;;;;;16.20;10.27;;;2.40;99.90;;;;;;5073645;28;20455;-57
2023/10/17 02:48:53;;;;;;;19.00;10.13;;;2.30;99.90;;;;;;5083462;28;20484;-56
2023/10/17 02:51:42;;;;;;;18.70;11.20;;;2.30;99.90;;;;;;5079861;28;20430;-58
2023/10/17 02:54:05;;;;;;;17.97;9.80;;;2.30;99.90;;;;;;5080712;28;20430;-57
2023/10/17 02:56:38;;;;;;;16.70;10.30;;;2.30;99.90;;;;;;5080772;28;20987;-59
2023/10/17 02:59:04;;;;;;;18.03;10.97;;;2.20;99.90;;;;;;5078520;28;20716;-56
2023/10/17 03:01:37;;;;;;;19.47;10.10;;;2.20;99.90;;;;;;5079224;28;20560;-57
2023/10/17 03:04:08;;;;;;;17.87;10.00;;;2.20;99.90;;;;;;5079142;28;20430;-57
2023/10/17 03:06:40;;;;;;;17.60;10.10;;;2.20;99.90;;;;;;5087903;28;20461;-57
2023/10/17 03:09:16;;;;;;;21.27;11.70;;;2.20;99.90;;;;;;5094476;28;20422;-57
2023/10/17 03:11:57;;;;;;;32.43;11.57;;;2.20;99.90;;;;;;5088513;28;20434;-57
2023/10/17 03:14:39;;;;;;;20.70;10.47;;;2.20;99.90;;;;;;5085182;28;20445;-57
2023/10/17 03:17:05;;;;;;;23.30;12.23;;;2.20;99.90;;;;;;5084466;28;20940;-58
2023/10/17 03:19:33;;;;;;;19.63;11.07;;;2.20;99.90;;;;;;5092159;28;20514;-57
2023/10/17 03:22:19;;;;;;;19.20;11.20;;;2.20;99.90;;;;;;5090011;28;20447;-58
2023/10/17 03:24:46;;;;;;;22.53;12.17;;;2.20;99.90;;;;;;5093174;28;20538;-57
2023/10/17 03:27:23;;;;;;;24.77;11.10;;;2.20;99.90;;;;;;5083073;28;21101;-58
2023/10/17 03:29:49;;;;;;;20.80;11.97;;;2.10;99.90;;;;;;5089310;28;20740;-57
2023/10/17 03:32:15;;;;;;;21.20;11.90;;;2.10;99.90;;;;;;5089461;28;20471;-58
2023/10/17 03:34:45;;;;;;;17.53;10.40;;;2.10;99.90;;;;;;5087034;28;20525;-57
2023/10/17 03:39:57;;;;;;;18.20;10.33;;;2.10;99.90;;;;;;5091929;28;20441;-57
2023/10/17 03:45:16;;;;;;;20.63;11.33;;;2.00;99.90;;;;;;5089923;28;20439;-59
2023/10/17 03:47:47;;;;;;;25.43;11.57;;;2.00;99.90;;;;;;5083113;28;20450;-57
2023/10/17 03:50:34;;;;;;;18.17;11.10;;;2.00;99.90;;;;;;5083710;28;20423;-56
2023/10/17 03:53:06;;;;;;;17.70;10.90;;;2.00;99.90;;;;;;5089762;28;20838;-57
2023/10/17 03:55:34;;;;;;;17.33;10.10;;;2.00;99.90;;;;;;5082545;28;21918;-55
2023/10/17 03:58:00;;;;;;;21.53;11.80;;;2.10;99.90;;;;;;5082837;28;20989;-58
2023/10/17 04:00:34;;;;;;;19.67;11.07;;;2.00;99.90;;;;;;5079988;28;20463;-54
2023/10/17 04:03:04;;;;;;;17.37;10.87;;;2.00;99.90;;;;;;5071802;28;20219;-53
2023/10/17 04:05:29;;;;;;;21.73;11.80;;;2.00;99.90;;;;;;5084423;28;20459;-54
2023/10/17 04:07:57;;;;;;;20.30;10.97;;;2.00;99.90;;;;;;5086345;28;20483;-54
2023/10/17 04:10:22;;;;;;;18.73;9.90;;;2.00;99.90;;;;;;5075610;28;20587;-56
2023/10/17 04:12:49;;;;;;;16.93;11.00;;;2.00;99.90;;;;;;5084561;28;21265;-56
2023/10/17 04:15:18;;;;;;;22.33;11.17;;;2.00;99.90;;;;;;5087729;28;20170;-58
2023/10/17 04:17:46;;;;;;;18.47;11.07;;;2.00;99.90;;;;;;5078618;28;20832;-59
2023/10/17 04:20:12;;;;;;;20.50;11.70;;;2.00;99.90;;;;;;5074600;28;20423;-59
2023/10/17 04:22:39;;;;;;;21.40;11.90;;;2.00;99.90;;;;;;5075423;28;20941;-59
2023/10/17 04:25:31;;;;;;;20.80;11.77;;;2.00;99.90;;;;;;5077278;28;20420;-58
2023/10/17 04:28:01;;;;;;;22.03;12.13;;;2.00;99.90;;;;;;5077213;28;20450;-60
2023/10/17 04:30:30;;;;;;;26.97;12.60;;;2.00;99.90;;;;;;5076697;28;20446;-58
2023/10/17 04:33:08;;;;;;;22.37;12.73;;;2.00;99.90;;;;;;5081404;28;20435;-59
2023/10/17 04:35:35;;;;;;;21.23;12.10;;;2.00;99.90;;;;;;5080998;28;20940;-59
2023/10/17 04:38:47;;;;;;;19.20;11.50;;;2.00;99.90;;;;;;5082381;28;20455;-58
2023/10/17 04:43:54;;;;;;;21.27;11.73;;;2.00;99.90;;;;;;5077120;28;20427;-59
2023/10/17 04:46:26;;;;;;;29.90;11.23;;;2.00;99.90;;;;;;5075551;28;20444;-59
2023/10/17 04:48:55;;;;;;;19.83;11.20;;;2.00;99.90;;;;;;5082295;28;20430;-59
2023/10/17 04:51:25;;;;;;;20.03;10.63;;;1.90;99.90;;;;;;5078431;28;20467;-57
2023/10/17 04:53:51;;;;;;;19.07;10.93;;;2.00;99.90;;;;;;5081565;28;20776;-56
2023/10/17 04:56:21;;;;;;;20.97;12.30;;;1.90;99.90;;;;;;5080066;28;21047;-57
2023/10/17 05:04:19;;;;;;;21.43;10.97;;;1.80;99.90;;;;;;5085040;28;20784;-60
2023/10/17 06:17:47;;;;;;;24.80;12.30;;;2.50;99.90;;;;;;5081242;28;20489;-59
2023/10/17 06:20:13;;;;;;;17.77;11.43;;;2.50;99.90;;;;;;5080671;28;20476;-59
2023/10/17 06:28:21;;;;;;;32.27;16.90;;;2.50;99.90;;;;;;5085354;28;20458;-59
2023/10/17 06:30:48;;;;;;;36.63;15.57;;;2.40;99.90;;;;;;5079155;28;20499;-58
2023/10/17 06:33:17;;;;;;;25.50;12.90;;;2.40;99.90;;;;;;5082989;28;20423;-60
2023/10/17 06:35:44;;;;;;;22.30;12.20;;;2.40;99.90;;;;;;5081594;28;20470;-60
2023/10/17 06:38:10;;;;;;;25.43;13.47;;;2.40;99.90;;;;;;5079493;28;20562;-59
2023/10/17 06:40:45;;;;;;;26.80;13.60;;;2.40;99.90;;;;;;5083820;28;20463;-59
2023/10/17 06:43:27;;;;;;;24.77;13.07;;;2.40;99.90;;;;;;5085945;28;20480;-59
2023/10/17 06:46:00;;;;;;;35.77;15.10;;;2.40;99.90;;;;;;5077590;28;20968;-59
2023/10/17 06:49:08;;;;;;;29.20;15.07;;;2.50;99.90;;;;;;5079304;28;20454;-59
2023/10/17 06:53:52;;;;;;;28.07;13.80;;;2.70;99.90;;;;;;5084318;28;20444;-59
2023/10/17 06:56:18;;;;;;;29.33;15.10;;;2.80;99.90;;;;;;5086572;28;20467;-58
2023/10/17 06:58:44;;;;;;;35.83;16.53;;;2.90;99.90;;;;;;5083498;28;20427;-59
2023/10/17 07:01:24;;;;;;;34.27;16.40;;;3.00;99.90;;;;;;5080971;28;20454;-59
2023/10/17 07:03:54;;;;;;;31.30;15.00;;;3.00;99.90;;;;;;5081830;28;20840;-59
2023/10/17 07:06:24;;;;;;;35.50;16.67;;;3.10;99.90;;;;;;5086028;28;20823;-57
2023/10/17 07:08:50;;;;;;;34.97;16.10;;;3.20;99.90;;;;;;5090768;28;20404;-59
2023/10/17 07:16:45;;;;;;;50.53;18.17;;;3.40;99.90;;;;;;5082134;28;20531;-57
2023/10/17 07:24:36;;;;;;;37.53;16.13;;;3.50;99.90;;;;;;5084252;28;20428;-59
2023/10/17 07:27:33;;;;;;;37.53;16.80;;;3.50;99.90;;;;;;5090203;28;20425;-58
2023/10/17 07:30:01;;;;;;;35.60;16.27;;;3.50;99.90;;;;;;5082295;28;21048;-58
2023/10/17 07:32:33;;;;;;;36.77;17.60;;;3.50;99.90;;;;;;5087053;28;20428;-59
2023/10/17 07:35:01;;;;;;;32.50;16.07;;;3.60;99.90;;;;;;5081904;28;20523;-59
2023/10/17 07:37:27;;;;;;;31.00;15.07;;;3.60;99.90;;;;;;5089004;28;20432;-59
2023/10/17 07:42:47;;;;;;;31.43;15.73;;;3.70;99.90;;;;;;5027274;28;20639;-58
2023/10/17 07:45:16;;;;;;;40.10;18.57;;;3.80;99.90;;;;;;5085600;28;20415;-59
2023/10/17 07:47:51;;;;;;;38.80;17.90;;;3.80;99.90;;;;;;5080128;28;20280;-60
2023/10/17 07:50:18;;;;;;;32.43;15.53;;;3.90;99.90;;;;;;5084808;28;20439;-58
2023/10/17 07:52:44;;;;;;;30.83;15.27;;;3.90;99.90;;;;;;5085071;28;20435;-60
2023/10/17 07:57:53;;;;;;;29.97;15.90;;;4.00;99.90;;;;;;5082725;28;20581;-60
2023/10/17 08:00:26;;;;;;;;;;;;;;;;;;;;;
2023/10/17 08:02:52;;;;;;;32.80;16.47;;;4.00;99.90;;;;;;5077007;28;20189;-59
2023/10/17 08:05:26;;;;;;;34.90;15.87;;;4.10;99.90;;;;;;5086587;28;20429;-59
2023/10/17 08:08:04;;;;;;;31.60;15.60;;;4.10;99.90;;;;;;5078483;28;20467;-59
2023/10/17 08:10:33;;;;;;;33.47;16.83;;;4.10;99.90;;;;;;5083078;28;20965;-59
2023/10/17 08:13:00;;;;;;;34.77;17.43;;;4.20;99.90;;;;;;5081509;28;20435;-59
2023/10/17 08:18:16;;;;;;;40.53;17.10;;;4.30;99.90;;;;;;5079456;28;20442;-59
2023/10/17 08:21:33;;;;;;;37.67;16.87;;;4.40;99.90;;;;;;5082410;28;20529;-59
2023/10/17 08:23:40;;;;;;;29.83;16.00;;;4.50;99.90;;;;;;5074608;28;20432;-59
2023/10/17 08:26:10;;;;;;;36.57;17.97;;;4.50;99.90;;;;;;5085429;28;20456;-59
2023/10/17 08:31:26;;;;;;;33.53;18.73;;;4.60;99.90;;;;;;5080438;28;20424;-59
2023/10/17 08:42:11;;;;;;;34.80;17.17;;;4.70;99.90;;;;;;5082064;28;20807;-59
2023/10/17 08:44:39;;;;;;;40.20;18.40;;;4.70;99.90;;;;;;5083690;28;20481;-59
2023/10/17 08:47:07;;;;;;;42.57;21.20;;;4.80;99.90;;;;;;5081583;28;20969;-58
2023/10/17 08:49:33;;;;;;;39.03;18.80;;;4.90;99.90;;;;;;5076971;28;20503;-58
2023/10/17 08:51:59;;;;;;;46.80;20.20;;;5.00;99.90;;;;;;5085135;28;20439;-59
2023/10/17 08:54:27;;;;;;;36.00;18.13;;;5.10;99.90;;;;;;5081616;28;20438;-59
2023/10/17 08:56:53;;;;;;;38.80;18.13;;;5.10;99.90;;;;;;5083157;28;20617;-59
2023/10/17 08:59:33;;;;;;;53.67;23.47;;;5.20;99.90;;;;;;5084302;28;20492;-57
2023/10/17 09:02:14;;;;;;;54.60;25.03;;;5.30;99.90;;;;;;5083501;28;20660;-58
2023/10/17 09:04:42;;;;;;;55.83;25.60;;;5.40;99.90;;;;;;5077484;28;20451;-60
2023/10/17 09:07:09;;;;;;;54.23;25.50;;;5.60;99.90;;;;;;5045399;28;1089470;-60
2023/10/17 09:09:35;;;;;;;39.63;18.10;;;5.70;99.90;;;;;;5078486;28;20181;-58
2023/10/17 09:12:01;;;;;;;45.40;19.97;;;5.70;99.90;;;;;;5077099;28;20446;-58
2023/10/17 09:14:35;;;;;;;37.23;18.87;;;5.70;99.90;;;;;;5086188;28;20708;-59
2023/10/17 09:17:13;;;;;;;49.00;21.83;;;5.80;99.90;;;;;;5077520;28;20474;-59
2023/10/17 09:19:46;;;;;;;44.20;21.00;;;5.90;99.90;;;;;;5081551;28;20436;-59
2023/10/17 09:22:15;;;;;;;39.53;18.27;;;5.90;99.90;;;;;;5085175;28;20566;-59
2023/10/17 09:24:45;;;;;;;39.03;18.00;;;6.10;99.90;;;;;;5087252;28;20483;-59
2023/10/17 09:27:14;;;;;;;30.07;16.17;;;6.20;99.90;;;;;;5083133;28;20439;-59
2023/10/17 09:29:52;;;;;;;32.77;16.60;;;6.40;99.90;;;;;;5075862;28;21274;-59
2023/10/17 09:32:38;;;;;;;33.00;16.20;;;6.60;99.90;;;;;;5079177;28;20526;-58
2023/10/17 09:35:13;;;;;;;27.97;16.17;;;6.80;99.90;;;;;;5079439;28;20424;-59
2023/10/17 09:37:43;;;;;;;26.20;15.10;;;6.90;99.90;;;;;;5080210;28;20447;-59
2023/10/17 09:40:12;;;;;;;26.67;15.03;;;7.10;99.90;;;;;;5086995;28;20410;-59
2023/10/17 09:42:44;;;;;;;25.27;15.20;;;7.20;99.90;;;;;;5082319;28;20459;-59
2023/10/17 09:45:15;;;;;;;22.90;14.10;;;7.40;99.90;;;;;;5083168;28;20424;-60
2023/10/17 09:47:44;;;;;;;30.47;14.53;;;7.60;99.90;;;;;;5084156;28;20466;-58
2023/10/17 09:50:21;;;;;;;20.70;12.70;;;7.70;99.90;;;;;;5084793;28;20432;-59
2023/10/17 09:52:51;;;;;;;21.43;13.07;;;7.90;99.90;;;;;;5078107;28;20489;-56
2023/10/17 09:55:24;;;;;;;23.10;13.23;;;8.00;99.90;;;;;;5083865;28;20430;-58
2023/10/17 09:58:10;;;;;;;19.77;13.27;;;8.20;99.90;;;;;;5083446;28;20540;-58
2023/10/17 10:00:46;;;;;;;25.17;12.03;;;8.40;99.90;;;;;;5077014;28;20453;-59
2023/10/17 10:03:13;;;;;;;21.20;12.27;;;8.60;99.90;;;;;;5078819;28;20448;-58
2023/10/17 10:05:39;;;;;;;21.83;12.80;;;8.80;99.10;;;;;;5088543;28;20840;-59
2023/10/17 10:08:31;;;;;;;23.10;11.80;;;8.90;99.80;;;;;;5082567;28;20470;-59
2023/10/17 10:10:57;;;;;;;20.67;12.10;;;9.10;98.10;;;;;;5081556;28;20174;-59
2023/10/17 10:13:24;;;;;;;20.67;12.10;;;9.30;97.40;;;;;;5085438;28;20792;-58
2023/10/17 10:15:53;;;;;;;19.83;12.43;;;9.40;96.90;;;;;;5079853;28;21182;-59
2023/10/17 10:18:34;;;;;;;18.03;10.17;;;9.60;96.60;;;;;;5078741;28;20492;-59
2023/10/17 10:21:03;;;;;;;14.53;10.00;;;9.80;93.50;;;;;;5084798;28;20452;-59
2023/10/17 10:23:34;;;;;;;15.80;10.10;;;10.00;90.70;;;;;;5086307;28;20427;-59
2023/10/17 10:26:11;;;;;;;22.33;10.00;;;10.10;86.70;;;;;;5084247;28;20451;-59
2023/10/17 10:28:38;;;;;;;15.83;10.20;;;10.10;79.20;;;;;;5086681;28;20475;-59
2023/10/17 10:31:22;;;;;;;15.57;9.67;;;10.20;76.20;;;;;;5080272;28;20447;-58
2023/10/17 10:33:51;;;;;;;13.30;8.47;;;10.40;78.70;;;;;;5081875;28;20494;-57
2023/10/17 10:36:22;;;;;;;17.53;10.67;;;10.50;78.50;;;;;;5078211;28;20484;-59
2023/10/17 10:38:47;;;;;;;15.23;9.83;;;10.70;77.50;;;;;;5085796;28;21114;-58
2023/10/17 10:41:15;;;;;;;12.70;8.53;;;10.80;75.50;;;;;;5084821;28;20459;-60
2023/10/17 10:43:41;;;;;;;14.73;10.20;;;10.90;72.00;;;;;;5079023;28;20186;-60
2023/10/17 10:46:10;;;;;;;13.90;9.10;;;10.90;70.50;;;;;;5085954;28;20443;-59
2023/10/17 10:48:40;;;;;;;15.50;8.90;;;11.10;71.00;;;;;;5088249;28;20435;-59
2023/10/17 10:51:05;;;;;;;15.60;9.50;;;11.20;69.70;;;;;;5079781;28;20455;-59
2023/10/17 10:53:35;;;;;;;14.10;8.80;;;11.40;67.80;;;;;;5082730;28;20471;-58
2023/10/17 10:56:03;;;;;;;11.77;8.20;;;11.50;66.50;;;;;;5090247;28;20648;-59
2023/10/17 10:58:35;;;;;;;12.83;8.70;;;11.50;66.70;;;;;;5081505;28;20439;-59
2023/10/17 11:01:04;;;;;;;13.47;9.60;;;11.70;67.90;;;;;;5082733;28;20463;-59
2023/10/17 11:03:31;;;;;;;13.93;8.90;;;11.80;68.00;;;;;;5086720;28;20432;-59
2023/10/17 11:06:04;;;;;;;11.00;7.80;;;11.90;67.70;;;;;;5084559;28;20466;-59
2023/10/17 11:08:39;;;;;;;15.23;9.57;;;12.10;67.00;;;;;;5084093;28;20442;-59
2023/10/17 11:11:05;;;;;;;11.23;8.00;;;12.30;66.30;;;;;;5083506;28;20404;-59
2023/10/17 11:13:39;;;;;;;15.50;10.17;;;12.50;65.70;;;;;;5090169;28;20518;-58
2023/10/17 11:16:06;;;;;;;13.13;9.40;;;12.70;65.10;;;;;;5083042;28;20450;-59
2023/10/17 11:18:35;;;;;;;13.50;8.30;;;12.90;63.60;;;;;;5077213;28;20461;-59
2023/10/17 11:21:02;;;;;;;12.63;8.40;;;12.90;62.40;;;;;;5078214;28;20448;-59
2023/10/17 11:23:29;;;;;;;11.83;8.57;;;13.00;62.60;;;;;;5083205;28;20486;-59
2023/10/17 11:25:57;;;;;;;14.50;8.80;;;13.00;62.60;;;;;;5082593;28;20525;-60
2023/10/17 11:28:23;;;;;;;10.60;8.13;;;13.10;61.80;;;;;;5085945;28;20439;-58
2023/10/17 11:30:50;;;;;;;19.00;8.40;;;13.00;62.10;;;;;;5084300;28;21133;-58
2023/10/17 11:33:28;;;;;;;11.83;7.97;;;13.00;62.50;;;;;;5087891;28;20246;-59
2023/10/17 11:35:54;;;;;;;10.07;7.13;;;13.00;62.60;;;;;;5086012;28;20784;-59
2023/10/17 11:38:33;;;;;;;13.30;8.90;;;12.90;62.50;;;;;;5090191;28;21000;-59
2023/10/17 11:41:05;;;;;;;11.00;7.97;;;12.90;63.00;;;;;;5084108;28;20501;-59
2023/10/17 11:43:42;;;;;;;14.20;7.77;;;12.80;63.30;;;;;;5085763;28;20944;-59
2023/10/17 11:46:16;;;;;;;9.83;7.67;;;12.90;63.80;;;;;;5083088;28;20480;-59
2023/10/17 11:48:44;;;;;;;15.03;8.27;;;12.90;64.10;;;;;;5074028;28;20436;-60
2023/10/17 11:51:16;;;;;;;14.50;8.37;;;12.90;62.70;;;;;;5086638;28;20899;-60
2023/10/17 11:54:05;;;;;;;12.63;8.70;;;13.00;62.90;;;;;;5080993;28;20445;-60
2023/10/17 11:56:39;;;;;;;11.93;8.77;;;13.00;63.10;;;;;;5082890;28;20477;-59
2023/10/17 11:59:10;;;;;;;14.67;8.27;;;13.00;62.80;;;;;;5086015;28;20790;-59
2023/10/17 12:01:36;;;;;;;9.20;7.87;;;13.00;62.70;;;;;;5080965;28;20471;-60
2023/10/17 12:04:10;;;;;;;11.87;8.93;;;13.10;63.10;;;;;;5085631;28;20460;-59
2023/10/17 12:06:36;;;;;;;13.80;7.67;;;13.20;63.90;;;;;;5085501;28;20459;-59
2023/10/17 12:09:17;;;;;;;10.10;6.90;;;13.30;64.70;;;;;;5085625;28;20858;-59
2023/10/17 12:11:47;;;;;;;11.87;7.70;;;13.40;64.80;;;;;;5080298;28;20174;-59
2023/10/17 12:14:19;;;;;;;9.90;6.87;;;13.40;64.70;;;;;;5087483;28;21064;-59
2023/10/17 12:16:54;;;;;;;12.57;7.43;;;13.50;64.90;;;;;;5081824;28;20458;-58
2023/10/17 12:19:21;;;;;;;10.90;7.47;;;13.50;64.70;;;;;;5081699;28;20447;-55
2023/10/17 12:21:48;;;;;;;10.57;7.20;;;13.50;64.90;;;;;;5085636;28;20514;-55
2023/10/17 12:24:24;;;;;;;7.60;6.30;;;13.60;65.60;;;;;;5084099;28;20767;-54
2023/10/17 12:26:50;;;;;;;9.40;6.30;;;13.60;65.50;;;;;;5070509;28;20461;-56
2023/10/17 12:29:17;;;;;;;10.20;6.10;;;13.70;65.80;;;;;;5081400;28;20489;-58
2023/10/17 12:31:43;;;;;;;11.57;6.80;;;13.70;65.50;;;;;;5082880;28;20478;-59
2023/10/17 12:34:09;;;;;;;8.77;6.60;;;13.70;65.20;;;;;;5078590;28;20483;-55
2023/10/17 12:36:37;;;;;;;8.70;6.40;;;13.80;64.90;;;;;;5084294;28;20463;-56
2023/10/17 12:39:06;;;;;;;10.10;5.13;;;13.90;64.90;;;;;;5084890;28;20178;-56
2023/10/17 12:41:33;;;;;;;8.93;5.83;;;13.90;64.70;;;;;;5081940;28;20953;-55
2023/10/17 12:43:59;;;;;;;11.63;6.33;;;13.90;63.90;;;;;;5082588;28;20436;-58
2023/10/17 12:46:25;;;;;;;8.57;5.93;;;14.00;63.60;;;;;;5079653;28;20456;-57
2023/10/17 12:48:51;;;;;;;8.90;5.23;;;14.00;63.90;;;;;;5083324;28;20814;-59
2023/10/17 12:51:20;;;;;;;7.07;5.47;;;14.00;63.80;;;;;;5081521;28;20261;-55
2023/10/17 12:53:46;;;;;;;6.60;5.17;;;14.00;64.30;;;;;;5090061;28;20434;-56
2023/10/17 12:56:12;;;;;;;8.00;5.33;;;14.00;64.70;;;;;;5088061;28;20446;-56
2023/10/17 12:58:37;;;;;;;7.60;4.83;;;14.00;64.80;;;;;;5086284;28;20423;-54
2023/10/17 13:01:07;;;;;;;6.93;5.17;;;14.00;64.90;;;;;;5080964;28;20231;-55
2023/10/17 13:03:34;;;;;;;13.10;5.47;;;14.10;64.80;;;;;;5082925;28;20189;-54
2023/10/17 13:06:00;;;;;;;10.13;5.90;;;14.10;64.60;;;;;;5081794;28;20488;-54
2023/10/17 13:08:26;;;;;;;7.50;5.57;;;14.10;64.40;;;;;;5073631;28;20456;-58
2023/10/17 13:10:55;;;;;;;5.93;4.90;;;14.00;63.90;;;;;;5083690;28;20640;-57
2023/10/17 13:13:22;;;;;;;6.60;5.40;;;14.00;64.40;;;;;;5082259;28;20442;-54
2023/10/17 13:15:48;;;;;;;5.50;4.30;;;14.00;65.20;;;;;;5085162;28;20432;-53
2023/10/17 13:18:14;;;;;;;4.90;4.40;;;14.10;64.80;;;;;;5087279;28;20428;-54
2023/10/17 13:20:50;;;;;;;5.27;4.50;;;14.10;65.10;;;;;;5085339;28;20457;-55
2023/10/17 13:23:19;;;;;;;6.83;4.23;;;14.20;65.30;;;;;;5086005;28;20407;-53
2023/10/17 13:25:44;;;;;;;9.80;5.40;;;14.30;65.50;;;;;;5083938;28;20428;-55
2023/10/17 13:28:10;;;;;;;7.33;5.03;;;14.30;65.20;;;;;;5086635;28;20502;-55
2023/10/17 13:30:36;;;;;;;5.30;4.33;;;14.40;65.30;;;;;;5082638;28;20182;-56
2023/10/17 13:33:03;;;;;;;9.27;4.70;;;14.50;65.60;;;;;;5074699;28;21109;-53
2023/10/17 13:35:30;;;;;;;7.83;4.77;;;14.50;64.70;;;;;;5084995;28;20177;-55
2023/10/17 13:37:56;;;;;;;6.87;5.00;;;14.60;64.80;;;;;;5088282;28;20438;-55
2023/10/17 13:40:24;;;;;;;6.37;4.43;;;14.70;65.40;;;;;;5086415;28;20820;-54
2023/10/17 13:42:51;;;;;;;7.07;4.40;;;14.80;65.20;;;;;;5076081;28;20474;-56
2023/10/17 13:45:17;;;;;;;9.97;4.90;;;15.10;65.00;;;;;;5078295;28;20451;-53
2023/10/17 13:47:43;;;;;;;17.63;5.17;;;15.20;64.10;;;;;;5073856;28;20909;-58
2023/10/17 13:50:15;;;;;;;8.30;4.80;;;15.30;63.40;;;;;;5077767;28;20428;-57
2023/10/17 13:52:42;;;;;;;6.43;4.87;;;15.40;63.00;;;;;;5081141;28;20431;-55
2023/10/17 13:55:14;;;;;;;6.57;4.83;;;15.40;62.70;;;;;;5084121;28;21005;-55
2023/10/17 13:57:42;;;;;;;13.93;6.00;;;15.40;62.50;;;;;;5084969;28;20535;-57
2023/10/17 14:00:18;;;;;;;17.40;6.13;;;15.30;62.00;;;;;;5082906;28;20436;-56
2023/10/17 14:02:46;;;;;;;10.70;5.13;;;15.20;62.00;;;;;;5084378;28;20461;-55
2023/10/17 14:05:12;;;;;;;9.73;5.40;;;15.10;62.20;;;;;;5080994;28;20432;-62
2023/10/17 14:07:39;;;;;;;11.57;5.67;;;14.90;62.00;;;;;;5082721;28;20478;-57
2023/10/17 14:10:09;;;;;;;10.40;5.60;;;14.90;62.50;;;;;;5085400;28;20413;-54
2023/10/17 14:12:39;;;;;;;14.90;5.50;;;14.80;62.70;;;;;;5088203;28;20439;-56
2023/10/17 14:15:06;;;;;;;10.93;5.10;;;14.70;62.60;;;;;;5087595;28;20808;-55
2023/10/17 14:17:32;;;;;;;11.03;5.20;;;14.70;62.60;;;;;;5081579;28;20444;-57
2023/10/17 14:20:05;;;;;;;8.70;5.40;;;14.60;62.70;;;;;;5084742;28;20480;-55
2023/10/17 14:22:38;;;;;;;8.77;5.40;;;14.60;63.10;;;;;;5089817;28;20186;-55
2023/10/17 14:25:07;;;;;;;11.73;5.30;;;14.50;62.90;;;;;;5089146;28;21128;-53
2023/10/17 14:27:33;;;;;;;9.20;5.93;;;14.40;62.60;;;;;;5084970;28;20509;-54
2023/10/17 14:29:59;;;;;;;14.50;8.33;;;14.40;63.00;;;;;;5080498;28;20424;-54
2023/10/17 14:32:26;;;;;;;12.27;8.70;;;14.40;62.70;;;;;;5076600;28;20597;-56
2023/10/17 14:34:53;;;;;;;13.23;8.13;;;14.40;62.40;;;;;;5083283;28;20428;-56
2023/10/17 14:37:20;;;;;;;14.97;9.50;;;14.30;63.00;;;;;;5079577;28;20823;-59
2023/10/17 14:39:46;;;;;;;14.90;9.07;;;14.30;62.60;;;;;;5084962;28;20418;-55
2023/10/17 14:42:17;;;;;;;15.47;9.73;;;14.20;62.70;;;;;;5077765;28;20463;-55
2023/10/17 14:44:45;;;;;;;13.77;10.33;;;14.20;62.60;;;;;;5075522;28;21103;-55
2023/10/17 14:47:14;;;;;;;22.43;10.70;;;14.00;62.80;;;;;;5082842;28;20466;-57
2023/10/17 14:49:41;;;;;;;16.40;10.87;;;14.00;63.30;;;;;;5074315;28;20423;-59
2023/10/17 14:52:07;;;;;;;16.27;10.70;;;13.90;63.60;;;;;;5084655;28;20432;-59
2023/10/17 14:54:34;;;;;;;18.27;11.97;;;13.90;63.50;;;;;;5083554;28;20443;-58
2023/10/17 14:57:06;;;;;;;18.80;11.30;;;13.80;63.40;;;;;;5080205;28;20441;-59
2023/10/17 14:59:37;;;;;;;20.37;11.90;;;13.70;63.80;;;;;;5079775;28;20508;-61
2023/10/17 15:02:03;;;;;;;26.63;11.00;;;13.60;64.20;;;;;;5082031;28;20459;-59
2023/10/17 15:04:29;;;;;;;17.73;12.03;;;13.40;64.70;;;;;;5086139;28;20989;-59
2023/10/17 15:06:54;;;;;;;18.27;11.60;;;13.30;65.30;;;;;;5086420;28;20201;-59